Airfield :
LOGIN :

Register | Disclaimer

   EN    FR    IT 

 










Legend :    VFR   Marginal VFR   IFR   Intensive IFR   Very Intensive IFR
Visi :
Ceiling :
>= 8 km
>= 3000ft
5 to 8 km
1000 to 3000 ft
1500m to 5 km
500 to 1000 ft
800 to 1500m
200 to 500 ft
< 800m
< 200 ft
Symbols :   Thunderstorms  Fog  Heavy snow  Heavy precipitations  Wind > 20 kt
SIGMETs :     Misc.  Thunderstorms  Icing  Turbulence  Mountain Waves  Volcanic Ashes






- Airport Elevation : 1585 ft
- IATA code : SIR


LSGS - Sion

CURRENT METAR :
  • 091850Z AUTO 09002KT 6000 -SN BKN/// 02/01 Q1001 RERASN

EXPIRED METARs :
  • 091820Z AUTO 08003KT 4700 -SN BR BKN/// 02/01 Q1001 RERASN
  • 091750Z AUTO 09002KT 5000 -RASN BKN/// 02/01 Q1001
  • 091720Z 08002KT 6000 -RASN SCT010 OVC045 02/01 Q1001
  • 091650Z 08003KT 5000 -RASN SCT010 OVC045 02/01 Q1001
  • 091620Z 00000KT 6000 -RASN SCT010 OVC045 02/01 Q1001

TAF TAF LSGS
Valid from the 09 at 15:00 until the 10 at 00:00 UTC


091425Z 0915/0924 09004KT 6000 RA FEW015 OVC035



MET'MAP, your aeronautical weather chart ! - Copyright ORBIFLY December 2007 - Disclaimer

ORBIFLY MET'MAP TEAM :

Programming & Development : Alexandra Zaïnal
Original concept : Baudouin d'Aumeries
Technical & hardware support : Manuel Goepfert
Assistance : Marc-Olivier Méhu




SOURCES & CREDITS :

   NOAA